sensor_id;sensor_type;location;lat;lon;timestamp;P1;durP1;ratioP1;P2;durP2;ratioP2
9260;SDS011;4667;42.726;23.252;2023-03-04T00:01:31;11.17;;;6.27;;
9260;SDS011;4667;42.726;23.252;2023-03-04T00:03:57;6.73;;;5.10;;
9260;SDS011;4667;42.726;23.252;2023-03-04T00:06:24;8.77;;;6.40;;
9260;SDS011;4667;42.726;23.252;2023-03-04T00:08:51;7.97;;;6.03;;
9260;SDS011;4667;42.726;23.252;2023-03-04T00:11:20;7.40;;;6.50;;
9260;SDS011;4667;42.726;23.252;2023-03-04T00:13:46;9.47;;;6.40;;
9260;SDS011;4667;42.726;23.252;2023-03-04T00:16:13;8.67;;;5.97;;
9260;SDS011;4667;42.726;23.252;2023-03-04T00:18:41;9.43;;;5.13;;
9260;SDS011;4667;42.726;23.252;2023-03-04T00:21:08;7.20;;;5.43;;
9260;SDS011;4667;42.726;23.252;2023-03-04T00:23:35;9.57;;;6.27;;
9260;SDS011;4667;42.726;23.252;2023-03-04T00:26:01;10.17;;;7.37;;
9260;SDS011;4667;42.726;23.252;2023-03-04T00:28:40;10.33;;;6.23;;
9260;SDS011;4667;42.726;23.252;2023-03-04T00:31:09;8.57;;;6.50;;
9260;SDS011;4667;42.726;23.252;2023-03-04T00:33:37;8.00;;;5.73;;
9260;SDS011;4667;42.726;23.252;2023-03-04T00:36:06;9.57;;;6.67;;
9260;SDS011;4667;42.726;23.252;2023-03-04T00:38:33;6.97;;;5.47;;
9260;SDS011;4667;42.726;23.252;2023-03-04T00:41:00;8.53;;;6.13;;
9260;SDS011;4667;42.726;23.252;2023-03-04T00:43:26;7.60;;;5.97;;
9260;SDS011;4667;42.726;23.252;2023-03-04T00:45:54;9.03;;;6.87;;
9260;SDS011;4667;42.726;23.252;2023-03-04T00:48:20;8.93;;;6.10;;
9260;SDS011;4667;42.726;23.252;2023-03-04T00:50:47;6.53;;;4.83;;
9260;SDS011;4667;42.726;23.252;2023-03-04T00:53:17;8.47;;;5.90;;
9260;SDS011;4667;42.726;23.252;2023-03-04T00:55:45;10.40;;;6.27;;
9260;SDS011;4667;42.726;23.252;2023-03-04T00:58:12;11.50;;;6.73;;
9260;SDS011;4667;42.726;23.252;2023-03-04T01:00:39;7.83;;;5.83;;
9260;SDS011;4667;42.726;23.252;2023-03-04T01:03:05;8.60;;;6.67;;
9260;SDS011;4667;42.726;23.252;2023-03-04T01:05:32;9.30;;;6.80;;
9260;SDS011;4667;42.726;23.252;2023-03-04T01:08:00;10.03;;;7.23;;
9260;SDS011;4667;42.726;23.252;2023-03-04T01:10:28;8.37;;;6.50;;
9260;SDS011;4667;42.726;23.252;2023-03-04T01:12:54;8.37;;;6.40;;
9260;SDS011;4667;42.726;23.252;2023-03-04T01:15:21;8.57;;;5.17;;
9260;SDS011;4667;42.726;23.252;2023-03-04T01:17:48;5.50;;;4.80;;
9260;SDS011;4667;42.726;23.252;2023-03-04T01:20:16;7.97;;;6.20;;
9260;SDS011;4667;42.726;23.252;2023-03-04T01:22:43;8.70;;;5.83;;
9260;SDS011;4667;42.726;23.252;2023-03-04T01:25:10;9.47;;;6.33;;
9260;SDS011;4667;42.726;23.252;2023-03-04T01:27:39;7.57;;;6.13;;
9260;SDS011;4667;42.726;23.252;2023-03-04T01:30:06;9.17;;;5.90;;
9260;SDS011;4667;42.726;23.252;2023-03-04T01:32:32;6.47;;;5.20;;
9260;SDS011;4667;42.726;23.252;2023-03-04T01:34:59;8.43;;;6.33;;
9260;SDS011;4667;42.726;23.252;2023-03-04T01:37:27;8.13;;;6.27;;
9260;SDS011;4667;42.726;23.252;2023-03-04T01:39:54;9.80;;;5.87;;
9260;SDS011;4667;42.726;23.252;2023-03-04T01:42:23;9.90;;;5.33;;
9260;SDS011;4667;42.726;23.252;2023-03-04T01:44:53;9.40;;;6.00;;
9260;SDS011;4667;42.726;23.252;2023-03-04T01:47:27;8.23;;;5.97;;
9260;SDS011;4667;42.726;23.252;2023-03-04T01:49:55;7.03;;;5.03;;
9260;SDS011;4667;42.726;23.252;2023-03-04T01:52:22;8.17;;;6.33;;
9260;SDS011;4667;42.726;23.252;2023-03-04T01:54:50;9.57;;;7.60;;
9260;SDS011;4667;42.726;23.252;2023-03-04T01:57:18;7.67;;;5.87;;
9260;SDS011;4667;42.726;23.252;2023-03-04T01:59:45;10.77;;;5.60;;
9260;SDS011;4667;42.726;23.252;2023-03-04T02:02:13;8.23;;;5.37;;
9260;SDS011;4667;42.726;23.252;2023-03-04T02:04:42;8.63;;;5.80;;
9260;SDS011;4667;42.726;23.252;2023-03-04T02:07:09;11.07;;;6.10;;
9260;SDS011;4667;42.726;23.252;2023-03-04T02:09:36;8.20;;;5.83;;
9260;SDS011;4667;42.726;23.252;2023-03-04T02:12:02;8.40;;;5.23;;
9260;SDS011;4667;42.726;23.252;2023-03-04T02:14:29;9.37;;;5.20;;
9260;SDS011;4667;42.726;23.252;2023-03-04T02:16:56;6.87;;;5.53;;
9260;SDS011;4667;42.726;23.252;2023-03-04T02:19:27;8.50;;;6.10;;
9260;SDS011;4667;42.726;23.252;2023-03-04T02:21:57;9.63;;;6.00;;
9260;SDS011;4667;42.726;23.252;2023-03-04T02:24:25;12.43;;;5.97;;
9260;SDS011;4667;42.726;23.252;2023-03-04T02:26:55;11.27;;;6.37;;
9260;SDS011;4667;42.726;23.252;2023-03-04T02:29:23;9.73;;;6.07;;
9260;SDS011;4667;42.726;23.252;2023-03-04T02:31:50;6.23;;;4.73;;
9260;SDS011;4667;42.726;23.252;2023-03-04T02:34:18;9.13;;;6.40;;
9260;SDS011;4667;42.726;23.252;2023-03-04T02:36:45;7.97;;;5.90;;
9260;SDS011;4667;42.726;23.252;2023-03-04T02:39:20;8.77;;;5.20;;
9260;SDS011;4667;42.726;23.252;2023-03-04T02:41:47;7.50;;;5.20;;
9260;SDS011;4667;42.726;23.252;2023-03-04T02:44:17;9.07;;;5.83;;
9260;SDS011;4667;42.726;23.252;2023-03-04T02:46:44;9.00;;;7.53;;
9260;SDS011;4667;42.726;23.252;2023-03-04T02:49:10;9.10;;;6.30;;
9260;SDS011;4667;42.726;23.252;2023-03-04T02:51:37;10.70;;;7.07;;
9260;SDS011;4667;42.726;23.252;2023-03-04T02:54:04;9.47;;;5.93;;
9260;SDS011;4667;42.726;23.252;2023-03-04T02:56:30;7.70;;;6.27;;
9260;SDS011;4667;42.726;23.252;2023-03-04T02:58:57;9.80;;;6.27;;
9260;SDS011;4667;42.726;23.252;2023-03-04T03:01:28;8.97;;;6.33;;
9260;SDS011;4667;42.726;23.252;2023-03-04T03:03:54;6.63;;;5.13;;
9260;SDS011;4667;42.726;23.252;2023-03-04T03:06:21;8.80;;;5.80;;
9260;SDS011;4667;42.726;23.252;2023-03-04T03:08:47;10.23;;;6.77;;
9260;SDS011;4667;42.726;23.252;2023-03-04T03:11:14;8.30;;;6.03;;
9260;SDS011;4667;42.726;23.252;2023-03-04T03:13:40;8.50;;;5.27;;
9260;SDS011;4667;42.726;23.252;2023-03-04T03:16:06;10.83;;;6.10;;
9260;SDS011;4667;42.726;23.252;2023-03-04T03:18:34;8.23;;;5.77;;
9260;SDS011;4667;42.726;23.252;2023-03-04T03:21:01;8.23;;;5.97;;
9260;SDS011;4667;42.726;23.252;2023-03-04T03:23:27;12.60;;;7.10;;
9260;SDS011;4667;42.726;23.252;2023-03-04T03:25:54;9.80;;;7.13;;
9260;SDS011;4667;42.726;23.252;2023-03-04T03:28:20;10.60;;;7.40;;
9260;SDS011;4667;42.726;23.252;2023-03-04T03:30:47;9.63;;;6.80;;
9260;SDS011;4667;42.726;23.252;2023-03-04T03:33:13;6.90;;;5.93;;
9260;SDS011;4667;42.726;23.252;2023-03-04T03:35:41;7.17;;;5.73;;
9260;SDS011;4667;42.726;23.252;2023-03-04T03:38:07;8.07;;;5.53;;
9260;SDS011;4667;42.726;23.252;2023-03-04T03:40:34;8.67;;;6.43;;
9260;SDS011;4667;42.726;23.252;2023-03-04T03:43:00;16.20;;;6.33;;
9260;SDS011;4667;42.726;23.252;2023-03-04T03:45:27;9.90;;;6.77;;
9260;SDS011;4667;42.726;23.252;2023-03-04T03:47:53;9.77;;;6.60;;
9260;SDS011;4667;42.726;23.252;2023-03-04T03:50:20;10.07;;;6.70;;
9260;SDS011;4667;42.726;23.252;2023-03-04T03:52:48;8.23;;;5.67;;
9260;SDS011;4667;42.726;23.252;2023-03-04T03:55:14;8.83;;;5.93;;
9260;SDS011;4667;42.726;23.252;2023-03-04T03:57:41;10.37;;;6.33;;
9260;SDS011;4667;42.726;23.252;2023-03-04T04:00:08;10.67;;;6.60;;
9260;SDS011;4667;42.726;23.252;2023-03-04T04:02:34;10.83;;;7.23;;
9260;SDS011;4667;42.726;23.252;2023-03-04T04:05:01;10.93;;;7.10;;
9260;SDS011;4667;42.726;23.252;2023-03-04T04:07:27;12.80;;;6.80;;
9260;SDS011;4667;42.726;23.252;2023-03-04T04:09:55;9.87;;;7.13;;
9260;SDS011;4667;42.726;23.252;2023-03-04T04:12:22;10.20;;;6.33;;
9260;SDS011;4667;42.726;23.252;2023-03-04T04:14:49;8.80;;;5.60;;
9260;SDS011;4667;42.726;23.252;2023-03-04T04:17:15;8.67;;;6.50;;
9260;SDS011;4667;42.726;23.252;2023-03-04T04:19:42;9.73;;;5.80;;
9260;SDS011;4667;42.726;23.252;2023-03-04T04:22:11;7.63;;;6.63;;
9260;SDS011;4667;42.726;23.252;2023-03-04T04:24:38;8.97;;;6.07;;
9260;SDS011;4667;42.726;23.252;2023-03-04T04:27:09;8.77;;;5.80;;
9260;SDS011;4667;42.726;23.252;2023-03-04T04:29:36;8.97;;;5.87;;
9260;SDS011;4667;42.726;23.252;2023-03-04T04:32:03;9.43;;;6.57;;
9260;SDS011;4667;42.726;23.252;2023-03-04T04:34:29;12.73;;;7.80;;
9260;SDS011;4667;42.726;23.252;2023-03-04T04:36:56;11.27;;;6.53;;
9260;SDS011;4667;42.726;23.252;2023-03-04T04:39:22;10.90;;;7.10;;
9260;SDS011;4667;42.726;23.252;2023-03-04T04:41:49;8.07;;;6.37;;
9260;SDS011;4667;42.726;23.252;2023-03-04T04:44:16;7.70;;;5.33;;
9260;SDS011;4667;42.726;23.252;2023-03-04T04:46:43;9.47;;;6.00;;
9260;SDS011;4667;42.726;23.252;2023-03-04T04:49:09;10.80;;;7.30;;
9260;SDS011;4667;42.726;23.252;2023-03-04T04:51:36;8.47;;;6.43;;
9260;SDS011;4667;42.726;23.252;2023-03-04T04:54:03;7.87;;;5.97;;
9260;SDS011;4667;42.726;23.252;2023-03-04T04:56:30;10.83;;;7.27;;
9260;SDS011;4667;42.726;23.252;2023-03-04T04:58:57;7.80;;;5.57;;
9260;SDS011;4667;42.726;23.252;2023-03-04T05:01:25;12.00;;;7.13;;
9260;SDS011;4667;42.726;23.252;2023-03-04T05:03:51;11.23;;;6.90;;
9260;SDS011;4667;42.726;23.252;2023-03-04T05:06:19;9.40;;;6.23;;
9260;SDS011;4667;42.726;23.252;2023-03-04T05:08:46;7.67;;;6.10;;
9260;SDS011;4667;42.726;23.252;2023-03-04T05:11:13;8.43;;;6.73;;
9260;SDS011;4667;42.726;23.252;2023-03-04T05:13:39;11.83;;;7.83;;
9260;SDS011;4667;42.726;23.252;2023-03-04T05:16:06;10.70;;;6.80;;
9260;SDS011;4667;42.726;23.252;2023-03-04T05:18:34;10.13;;;7.27;;
9260;SDS011;4667;42.726;23.252;2023-03-04T05:21:01;10.53;;;5.73;;
9260;SDS011;4667;42.726;23.252;2023-03-04T05:23:31;10.23;;;7.33;;
9260;SDS011;4667;42.726;23.252;2023-03-04T05:25:58;8.33;;;6.60;;
9260;SDS011;4667;42.726;23.252;2023-03-04T05:28:28;8.27;;;6.23;;
9260;SDS011;4667;42.726;23.252;2023-03-04T05:30:54;11.83;;;7.93;;
9260;SDS011;4667;42.726;23.252;2023-03-04T05:33:21;13.40;;;8.10;;
9260;SDS011;4667;42.726;23.252;2023-03-04T05:35:49;19.20;;;8.87;;
9260;SDS011;4667;42.726;23.252;2023-03-04T05:38:16;11.90;;;7.60;;
9260;SDS011;4667;42.726;23.252;2023-03-04T05:40:43;11.70;;;8.17;;
9260;SDS011;4667;42.726;23.252;2023-03-04T05:43:09;12.07;;;7.57;;
9260;SDS011;4667;42.726;23.252;2023-03-04T05:45:36;11.47;;;7.33;;
9260;SDS011;4667;42.726;23.252;2023-03-04T05:48:03;12.47;;;7.27;;
9260;SDS011;4667;42.726;23.252;2023-03-04T05:50:30;11.77;;;8.83;;
9260;SDS011;4667;42.726;23.252;2023-03-04T05:52:58;9.73;;;5.73;;
9260;SDS011;4667;42.726;23.252;2023-03-04T05:55:24;9.50;;;6.97;;
9260;SDS011;4667;42.726;23.252;2023-03-04T05:57:51;13.53;;;8.03;;
9260;SDS011;4667;42.726;23.252;2023-03-04T06:00:18;16.57;;;7.77;;
9260;SDS011;4667;42.726;23.252;2023-03-04T06:02:44;9.83;;;6.80;;
9260;SDS011;4667;42.726;23.252;2023-03-04T06:05:11;7.93;;;6.20;;
9260;SDS011;4667;42.726;23.252;2023-03-04T06:07:39;12.70;;;5.93;;
9260;SDS011;4667;42.726;23.252;2023-03-04T06:10:09;9.20;;;6.60;;
9260;SDS011;4667;42.726;23.252;2023-03-04T06:12:36;8.23;;;6.70;;
9260;SDS011;4667;42.726;23.252;2023-03-04T06:15:03;10.57;;;6.93;;
9260;SDS011;4667;42.726;23.252;2023-03-04T06:17:34;8.60;;;6.47;;
9260;SDS011;4667;42.726;23.252;2023-03-04T06:20:04;9.47;;;6.17;;
9260;SDS011;4667;42.726;23.252;2023-03-04T06:22:31;10.80;;;7.03;;
9260;SDS011;4667;42.726;23.252;2023-03-04T06:24:59;13.60;;;7.27;;
9260;SDS011;4667;42.726;23.252;2023-03-04T06:27:28;10.07;;;6.70;;
9260;SDS011;4667;42.726;23.252;2023-03-04T06:29:55;10.37;;;7.50;;
9260;SDS011;4667;42.726;23.252;2023-03-04T06:32:21;12.77;;;8.03;;
9260;SDS011;4667;42.726;23.252;2023-03-04T06:34:48;12.23;;;7.90;;
9260;SDS011;4667;42.726;23.252;2023-03-04T06:37:14;12.93;;;6.70;;
9260;SDS011;4667;42.726;23.252;2023-03-04T06:39:41;8.93;;;6.50;;
9260;SDS011;4667;42.726;23.252;2023-03-04T06:42:07;9.07;;;5.27;;
9260;SDS011;4667;42.726;23.252;2023-03-04T06:44:35;9.57;;;5.90;;
9260;SDS011;4667;42.726;23.252;2023-03-04T06:47:02;7.40;;;5.37;;
9260;SDS011;4667;42.726;23.252;2023-03-04T06:49:28;5.67;;;4.37;;
9260;SDS011;4667;42.726;23.252;2023-03-04T06:51:55;9.17;;;5.87;;
9260;SDS011;4667;42.726;23.252;2023-03-04T06:54:21;10.10;;;5.60;;
9260;SDS011;4667;42.726;23.252;2023-03-04T06:56:48;6.97;;;5.53;;
9260;SDS011;4667;42.726;23.252;2023-03-04T06:59:15;6.67;;;4.73;;
9260;SDS011;4667;42.726;23.252;2023-03-04T07:01:47;8.07;;;5.60;;
9260;SDS011;4667;42.726;23.252;2023-03-04T07:04:14;4.80;;;4.10;;
9260;SDS011;4667;42.726;23.252;2023-03-04T07:06:40;9.43;;;5.10;;
9260;SDS011;4667;42.726;23.252;2023-03-04T07:09:07;7.10;;;4.30;;
9260;SDS011;4667;42.726;23.252;2023-03-04T07:11:33;9.10;;;4.90;;
9260;SDS011;4667;42.726;23.252;2023-03-04T07:14:00;5.47;;;4.57;;
9260;SDS011;4667;42.726;23.252;2023-03-04T07:16:26;7.13;;;4.93;;
9260;SDS011;4667;42.726;23.252;2023-03-04T07:18:54;11.70;;;6.63;;
9260;SDS011;4667;42.726;23.252;2023-03-04T07:21:21;7.57;;;4.57;;
9260;SDS011;4667;42.726;23.252;2023-03-04T07:23:47;7.97;;;5.43;;
9260;SDS011;4667;42.726;23.252;2023-03-04T07:26:14;9.30;;;5.57;;
9260;SDS011;4667;42.726;23.252;2023-03-04T07:28:40;8.80;;;5.17;;
9260;SDS011;4667;42.726;23.252;2023-03-04T07:31:10;14.90;;;5.87;;
9260;SDS011;4667;42.726;23.252;2023-03-04T07:33:37;7.60;;;6.23;;
9260;SDS011;4667;42.726;23.252;2023-03-04T07:36:05;10.80;;;5.30;;
9260;SDS011;4667;42.726;23.252;2023-03-04T07:38:31;6.60;;;4.70;;
9260;SDS011;4667;42.726;23.252;2023-03-04T07:40:59;10.03;;;5.63;;
9260;SDS011;4667;42.726;23.252;2023-03-04T07:43:26;10.13;;;6.13;;
9260;SDS011;4667;42.726;23.252;2023-03-04T07:45:57;12.47;;;6.27;;
9260;SDS011;4667;42.726;23.252;2023-03-04T07:48:23;9.73;;;6.70;;
9260;SDS011;4667;42.726;23.252;2023-03-04T07:50:50;8.97;;;5.77;;
9260;SDS011;4667;42.726;23.252;2023-03-04T07:53:18;10.63;;;7.57;;
9260;SDS011;4667;42.726;23.252;2023-03-04T07:55:46;5.70;;;4.83;;
9260;SDS011;4667;42.726;23.252;2023-03-04T07:58:13;7.63;;;5.53;;
9260;SDS011;4667;42.726;23.252;2023-03-04T08:00:43;11.77;;;6.67;;
9260;SDS011;4667;42.726;23.252;2023-03-04T08:03:10;7.23;;;4.90;;
9260;SDS011;4667;42.726;23.252;2023-03-04T08:05:37;8.30;;;6.13;;
9260;SDS011;4667;42.726;23.252;2023-03-04T08:08:04;9.27;;;5.60;;
9260;SDS011;4667;42.726;23.252;2023-03-04T08:10:34;7.23;;;4.97;;
9260;SDS011;4667;42.726;23.252;2023-03-04T08:13:03;9.20;;;5.77;;
9260;SDS011;4667;42.726;23.252;2023-03-04T08:15:30;12.30;;;6.67;;
9260;SDS011;4667;42.726;23.252;2023-03-04T08:17:59;11.97;;;7.10;;
9260;SDS011;4667;42.726;23.252;2023-03-04T08:20:25;7.97;;;5.10;;
9260;SDS011;4667;42.726;23.252;2023-03-04T08:22:52;8.93;;;6.47;;
9260;SDS011;4667;42.726;23.252;2023-03-04T08:25:18;10.30;;;5.27;;
9260;SDS011;4667;42.726;23.252;2023-03-04T08:27:46;9.13;;;6.57;;
9260;SDS011;4667;42.726;23.252;2023-03-04T08:30:13;8.67;;;6.20;;
9260;SDS011;4667;42.726;23.252;2023-03-04T08:32:40;8.97;;;6.87;;
9260;SDS011;4667;42.726;23.252;2023-03-04T08:35:06;9.37;;;6.17;;
9260;SDS011;4667;42.726;23.252;2023-03-04T08:37:33;8.47;;;5.77;;
9260;SDS011;4667;42.726;23.252;2023-03-04T08:39:59;9.03;;;6.37;;
9260;SDS011;4667;42.726;23.252;2023-03-04T08:42:27;9.97;;;7.13;;
9260;SDS011;4667;42.726;23.252;2023-03-04T08:44:56;11.60;;;5.47;;
9260;SDS011;4667;42.726;23.252;2023-03-04T08:47:23;7.23;;;5.00;;
9260;SDS011;4667;42.726;23.252;2023-03-04T08:49:49;8.10;;;5.93;;
9260;SDS011;4667;42.726;23.252;2023-03-04T08:52:16;8.97;;;4.97;;
9260;SDS011;4667;42.726;23.252;2023-03-04T08:54:42;9.83;;;5.70;;
9260;SDS011;4667;42.726;23.252;2023-03-04T08:57:09;13.27;;;6.10;;
9260;SDS011;4667;42.726;23.252;2023-03-04T08:59:35;7.53;;;5.33;;
9260;SDS011;4667;42.726;23.252;2023-03-04T09:02:03;6.90;;;5.23;;
9260;SDS011;4667;42.726;23.252;2023-03-04T09:04:29;10.70;;;5.97;;
9260;SDS011;4667;42.726;23.252;2023-03-04T09:06:56;12.50;;;5.67;;
9260;SDS011;4667;42.726;23.252;2023-03-04T09:09:22;10.27;;;6.00;;
9260;SDS011;4667;42.726;23.252;2023-03-04T09:11:49;8.27;;;5.03;;
9260;SDS011;4667;42.726;23.252;2023-03-04T09:14:16;8.53;;;6.17;;
9260;SDS011;4667;42.726;23.252;2023-03-04T09:16:42;10.70;;;5.50;;
9260;SDS011;4667;42.726;23.252;2023-03-04T09:19:10;8.23;;;5.07;;
9260;SDS011;4667;42.726;23.252;2023-03-04T09:21:36;9.03;;;5.00;;
9260;SDS011;4667;42.726;23.252;2023-03-04T09:24:03;8.53;;;4.90;;
9260;SDS011;4667;42.726;23.252;2023-03-04T09:26:29;8.10;;;5.57;;
9260;SDS011;4667;42.726;23.252;2023-03-04T09:28:56;7.93;;;6.27;;
9260;SDS011;4667;42.726;23.252;2023-03-04T09:31:23;7.53;;;5.63;;
9260;SDS011;4667;42.726;23.252;2023-03-04T09:33:50;7.30;;;4.90;;
9260;SDS011;4667;42.726;23.252;2023-03-04T09:36:18;5.20;;;4.57;;
9260;SDS011;4667;42.726;23.252;2023-03-04T09:38:45;8.53;;;4.87;;
9260;SDS011;4667;42.726;23.252;2023-03-04T09:41:13;14.37;;;4.83;;
9260;SDS011;4667;42.726;23.252;2023-03-04T09:43:40;8.43;;;5.97;;
9260;SDS011;4667;42.726;23.252;2023-03-04T09:46:09;10.53;;;5.27;;
9260;SDS011;4667;42.726;23.252;2023-03-04T09:48:39;8.00;;;4.63;;
9260;SDS011;4667;42.726;23.252;2023-03-04T09:51:13;9.13;;;5.77;;
9260;SDS011;4667;42.726;23.252;2023-03-04T09:53:46;6.70;;;5.07;;
9260;SDS011;4667;42.726;23.252;2023-03-04T09:56:14;7.37;;;4.93;;
9260;SDS011;4667;42.726;23.252;2023-03-04T09:58:43;6.97;;;5.20;;
9260;SDS011;4667;42.726;23.252;2023-03-04T10:01:15;10.30;;;5.87;;
9260;SDS011;4667;42.726;23.252;2023-03-04T10:03:44;8.73;;;5.53;;
9260;SDS011;4667;42.726;23.252;2023-03-04T10:06:14;12.47;;;5.07;;
9260;SDS011;4667;42.726;23.252;2023-03-04T10:08:44;9.27;;;4.80;;
9260;SDS011;4667;42.726;23.252;2023-03-04T10:11:13;9.47;;;5.60;;
9260;SDS011;4667;42.726;23.252;2023-03-04T10:13:42;7.90;;;5.73;;
9260;SDS011;4667;42.726;23.252;2023-03-04T10:16:10;7.87;;;5.40;;
9260;SDS011;4667;42.726;23.252;2023-03-04T10:18:40;9.60;;;5.47;;
9260;SDS011;4667;42.726;23.252;2023-03-04T10:21:11;9.80;;;5.63;;
9260;SDS011;4667;42.726;23.252;2023-03-04T10:23:40;9.20;;;5.23;;
9260;SDS011;4667;42.726;23.252;2023-03-04T10:26:11;6.53;;;5.07;;
9260;SDS011;4667;42.726;23.252;2023-03-04T10:28:38;14.67;;;5.43;;
9260;SDS011;4667;42.726;23.252;2023-03-04T10:31:08;12.57;;;6.17;;
9260;SDS011;4667;42.726;23.252;2023-03-04T10:33:37;7.93;;;5.37;;
9260;SDS011;4667;42.726;23.252;2023-03-04T10:36:05;8.43;;;5.40;;
9260;SDS011;4667;42.726;23.252;2023-03-04T10:38:36;7.47;;;4.93;;
9260;SDS011;4667;42.726;23.252;2023-03-04T10:41:12;8.87;;;5.53;;
9260;SDS011;4667;42.726;23.252;2023-03-04T10:43:42;8.43;;;5.43;;
9260;SDS011;4667;42.726;23.252;2023-03-04T10:46:11;10.80;;;5.33;;
9260;SDS011;4667;42.726;23.252;2023-03-04T10:48:39;11.03;;;6.20;;
9260;SDS011;4667;42.726;23.252;2023-03-04T10:51:15;7.77;;;5.80;;
9260;SDS011;4667;42.726;23.252;2023-03-04T10:53:43;10.00;;;6.13;;
9260;SDS011;4667;42.726;23.252;2023-03-04T10:58:56;10.90;;;5.20;;
9260;SDS011;4667;42.726;23.252;2023-03-04T11:01:44;8.30;;;5.90;;
9260;SDS011;4667;42.726;23.252;2023-03-04T11:04:14;9.97;;;6.07;;
9260;SDS011;4667;42.726;23.252;2023-03-04T11:06:42;9.43;;;5.63;;
9260;SDS011;4667;42.726;23.252;2023-03-04T11:09:18;7.47;;;4.97;;
9260;SDS011;4667;42.726;23.252;2023-03-04T11:11:46;7.83;;;6.30;;
9260;SDS011;4667;42.726;23.252;2023-03-04T11:14:16;10.83;;;6.20;;
9260;SDS011;4667;42.726;23.252;2023-03-04T11:16:52;7.83;;;4.80;;
9260;SDS011;4667;42.726;23.252;2023-03-04T11:19:22;9.63;;;5.53;;
9260;SDS011;4667;42.726;23.252;2023-03-04T11:21:50;9.20;;;5.43;;
9260;SDS011;4667;42.726;23.252;2023-03-04T11:24:18;6.30;;;4.80;;
9260;SDS011;4667;42.726;23.252;2023-03-04T11:26:50;8.63;;;5.03;;
9260;SDS011;4667;42.726;23.252;2023-03-04T11:29:18;7.93;;;5.10;;
9260;SDS011;4667;42.726;23.252;2023-03-04T11:31:46;9.20;;;5.80;;
9260;SDS011;4667;42.726;23.252;2023-03-04T11:34:21;7.53;;;5.23;;
9260;SDS011;4667;42.726;23.252;2023-03-04T11:36:50;9.67;;;5.53;;
9260;SDS011;4667;42.726;23.252;2023-03-04T11:39:20;7.07;;;5.57;;
9260;SDS011;4667;42.726;23.252;2023-03-04T11:41:51;10.20;;;6.23;;
9260;SDS011;4667;42.726;23.252;2023-03-04T11:44:19;8.33;;;5.03;;
9260;SDS011;4667;42.726;23.252;2023-03-04T11:46:49;9.03;;;4.83;;
9260;SDS011;4667;42.726;23.252;2023-03-04T11:49:31;8.40;;;5.30;;
9260;SDS011;4667;42.726;23.252;2023-03-04T11:52:04;9.53;;;5.07;;
9260;SDS011;4667;42.726;23.252;2023-03-04T11:54:37;8.37;;;4.97;;
9260;SDS011;4667;42.726;23.252;2023-03-04T11:57:05;8.03;;;5.43;;
9260;SDS011;4667;42.726;23.252;2023-03-04T11:59:43;9.17;;;5.17;;
9260;SDS011;4667;42.726;23.252;2023-03-04T12:02:12;7.50;;;5.27;;
9260;SDS011;4667;42.726;23.252;2023-03-04T12:07:47;8.03;;;4.87;;
9260;SDS011;4667;42.726;23.252;2023-03-04T12:10:22;9.70;;;4.97;;
9260;SDS011;4667;42.726;23.252;2023-03-04T12:12:57;7.23;;;5.30;;
9260;SDS011;4667;42.726;23.252;2023-03-04T12:15:28;7.03;;;4.27;;
9260;SDS011;4667;42.726;23.252;2023-03-04T12:18:04;7.83;;;5.00;;
9260;SDS011;4667;42.726;23.252;2023-03-04T12:20:44;10.20;;;4.80;;
9260;SDS011;4667;42.726;23.252;2023-03-04T12:23:24;7.03;;;4.50;;
9260;SDS011;4667;42.726;23.252;2023-03-04T12:25:54;8.73;;;5.00;;
9260;SDS011;4667;42.726;23.252;2023-03-04T12:28:27;8.80;;;4.70;;
9260;SDS011;4667;42.726;23.252;2023-03-04T12:31:05;8.37;;;5.40;;
9260;SDS011;4667;42.726;23.252;2023-03-04T12:33:39;9.20;;;5.00;;
9260;SDS011;4667;42.726;23.252;2023-03-04T12:36:09;8.33;;;4.83;;
9260;SDS011;4667;42.726;23.252;2023-03-04T12:38:43;9.53;;;5.80;;
9260;SDS011;4667;42.726;23.252;2023-03-04T12:41:20;7.13;;;5.07;;
9260;SDS011;4667;42.726;23.252;2023-03-04T12:43:51;8.47;;;5.67;;
9260;SDS011;4667;42.726;23.252;2023-03-04T12:46:37;9.47;;;6.30;;
9260;SDS011;4667;42.726;23.252;2023-03-04T12:49:13;7.73;;;5.33;;
9260;SDS011;4667;42.726;23.252;2023-03-04T12:51:44;8.10;;;6.00;;
9260;SDS011;4667;42.726;23.252;2023-03-04T12:54:17;7.30;;;4.37;;
9260;SDS011;4667;42.726;23.252;2023-03-04T12:56:49;9.03;;;4.80;;
9260;SDS011;4667;42.726;23.252;2023-03-04T12:59:17;8.87;;;5.90;;
9260;SDS011;4667;42.726;23.252;2023-03-04T13:01:45;7.87;;;5.60;;
9260;SDS011;4667;42.726;23.252;2023-03-04T13:04:18;9.47;;;6.10;;
9260;SDS011;4667;42.726;23.252;2023-03-04T13:06:51;7.53;;;5.83;;
9260;SDS011;4667;42.726;23.252;2023-03-04T13:09:23;7.70;;;4.93;;
9260;SDS011;4667;42.726;23.252;2023-03-04T13:12:01;8.70;;;5.13;;
9260;SDS011;4667;42.726;23.252;2023-03-04T13:14:32;9.37;;;5.67;;
9260;SDS011;4667;42.726;23.252;2023-03-04T13:16:59;15.30;;;5.47;;
9260;SDS011;4667;42.726;23.252;2023-03-04T13:25:00;9.13;;;6.10;;
9260;SDS011;4667;42.726;23.252;2023-03-04T13:33:38;9.27;;;5.30;;
9260;SDS011;4667;42.726;23.252;2023-03-04T13:36:00;13.37;;;5.53;;
9260;SDS011;4667;42.726;23.252;2023-03-04T13:38:32;11.53;;;5.60;;
9260;SDS011;4667;42.726;23.252;2023-03-04T13:41:10;7.90;;;5.17;;
9260;SDS011;4667;42.726;23.252;2023-03-04T13:43:38;9.17;;;5.77;;
9260;SDS011;4667;42.726;23.252;2023-03-04T13:48:57;10.00;;;6.43;;
9260;SDS011;4667;42.726;23.252;2023-03-04T13:51:26;20.63;;;7.93;;
9260;SDS011;4667;42.726;23.252;2023-03-04T13:53:52;12.53;;;7.93;;
9260;SDS011;4667;42.726;23.252;2023-03-04T13:56:22;9.50;;;6.47;;
9260;SDS011;4667;42.726;23.252;2023-03-04T13:58:49;9.43;;;6.77;;
9260;SDS011;4667;42.726;23.252;2023-03-04T14:01:25;10.87;;;6.17;;
9260;SDS011;4667;42.726;23.252;2023-03-04T14:03:53;9.30;;;5.47;;
9260;SDS011;4667;42.726;23.252;2023-03-04T14:06:21;10.37;;;6.43;;
9260;SDS011;4667;42.726;23.252;2023-03-04T14:08:47;14.27;;;8.77;;
9260;SDS011;4667;42.726;23.252;2023-03-04T14:11:15;11.73;;;6.50;;
9260;SDS011;4667;42.726;23.252;2023-03-04T14:13:43;11.93;;;7.57;;
9260;SDS011;4667;42.726;23.252;2023-03-04T14:16:10;15.33;;;7.27;;
9260;SDS011;4667;42.726;23.252;2023-03-04T14:18:36;14.20;;;7.90;;
9260;SDS011;4667;42.726;23.252;2023-03-04T14:21:03;15.27;;;7.93;;
9260;SDS011;4667;42.726;23.252;2023-03-04T14:23:32;9.70;;;7.30;;
9260;SDS011;4667;42.726;23.252;2023-03-04T14:26:05;16.23;;;7.87;;
9260;SDS011;4667;42.726;23.252;2023-03-04T14:28:32;11.50;;;7.23;;
9260;SDS011;4667;42.726;23.252;2023-03-04T14:31:00;19.27;;;8.83;;
9260;SDS011;4667;42.726;23.252;2023-03-04T14:33:27;14.30;;;7.73;;
9260;SDS011;4667;42.726;23.252;2023-03-04T14:35:55;12.23;;;6.80;;
9260;SDS011;4667;42.726;23.252;2023-03-04T14:38:22;14.83;;;8.67;;
9260;SDS011;4667;42.726;23.252;2023-03-04T14:40:50;17.60;;;8.60;;
9260;SDS011;4667;42.726;23.252;2023-03-04T14:43:18;16.63;;;7.87;;
9260;SDS011;4667;42.726;23.252;2023-03-04T14:45:46;13.10;;;8.03;;
9260;SDS011;4667;42.726;23.252;2023-03-04T14:48:17;15.13;;;7.97;;
9260;SDS011;4667;42.726;23.252;2023-03-04T14:50:46;17.67;;;9.47;;
9260;SDS011;4667;42.726;23.252;2023-03-04T14:53:14;13.03;;;7.87;;
9260;SDS011;4667;42.726;23.252;2023-03-04T14:55:53;13.20;;;8.10;;
9260;SDS011;4667;42.726;23.252;2023-03-04T14:58:21;14.57;;;9.10;;
9260;SDS011;4667;42.726;23.252;2023-03-04T15:00:47;16.87;;;8.83;;
9260;SDS011;4667;42.726;23.252;2023-03-04T15:03:19;15.70;;;8.80;;
9260;SDS011;4667;42.726;23.252;2023-03-04T15:05:48;14.57;;;9.77;;
9260;SDS011;4667;42.726;23.252;2023-03-04T15:10:52;14.70;;;8.63;;
9260;SDS011;4667;42.726;23.252;2023-03-04T15:16:01;18.13;;;9.90;;
9260;SDS011;4667;42.726;23.252;2023-03-04T15:18:29;14.17;;;9.17;;
9260;SDS011;4667;42.726;23.252;2023-03-04T15:20:56;14.47;;;8.97;;
9260;SDS011;4667;42.726;23.252;2023-03-04T15:23:23;14.27;;;8.63;;
9260;SDS011;4667;42.726;23.252;2023-03-04T15:25:51;16.57;;;9.43;;
9260;SDS011;4667;42.726;23.252;2023-03-04T15:28:18;16.73;;;8.70;;
9260;SDS011;4667;42.726;23.252;2023-03-04T15:30:45;14.70;;;9.90;;